sensor_id;sensor_type;location;lat;lon;timestamp;P1;durP1;ratioP1;P2;durP2;ratioP2
13799;SDS011;6971;50.028;9.258;2022-11-09T00:00:03;4.80;;;3.30;;
13799;SDS011;6971;50.028;9.258;2022-11-09T00:05:08;5.40;;;3.40;;
13799;SDS011;6971;50.028;9.258;2022-11-09T00:10:09;4.40;;;3.13;;
13799;SDS011;6971;50.028;9.258;2022-11-09T00:15:09;5.33;;;3.37;;
13799;SDS011;6971;50.028;9.258;2022-11-09T00:20:11;6.40;;;3.93;;
13799;SDS011;6971;50.028;9.258;2022-11-09T00:25:12;4.60;;;3.17;;
13799;SDS011;6971;50.028;9.258;2022-11-09T00:30:12;4.93;;;3.63;;
13799;SDS011;6971;50.028;9.258;2022-11-09T00:35:13;7.07;;;3.53;;
13799;SDS011;6971;50.028;9.258;2022-11-09T00:40:14;5.80;;;3.47;;
13799;SDS011;6971;50.028;9.258;2022-11-09T00:45:15;5.13;;;3.50;;
13799;SDS011;6971;50.028;9.258;2022-11-09T00:50:16;4.53;;;3.53;;
13799;SDS011;6971;50.028;9.258;2022-11-09T00:55:17;5.33;;;3.73;;
13799;SDS011;6971;50.028;9.258;2022-11-09T01:00:21;6.33;;;3.47;;
13799;SDS011;6971;50.028;9.258;2022-11-09T01:05:23;8.63;;;3.90;;
13799;SDS011;6971;50.028;9.258;2022-11-09T01:10:24;7.13;;;3.63;;
13799;SDS011;6971;50.028;9.258;2022-11-09T01:15:24;8.43;;;4.13;;
13799;SDS011;6971;50.028;9.258;2022-11-09T01:20:25;6.73;;;4.37;;
13799;SDS011;6971;50.028;9.258;2022-11-09T01:25:26;5.43;;;3.77;;
13799;SDS011;6971;50.028;9.258;2022-11-09T01:30:27;8.13;;;5.17;;
13799;SDS011;6971;50.028;9.258;2022-11-09T01:35:28;10.20;;;4.50;;
13799;SDS011;6971;50.028;9.258;2022-11-09T01:40:30;13.03;;;4.50;;
13799;SDS011;6971;50.028;9.258;2022-11-09T01:45:34;9.33;;;4.77;;
13799;SDS011;6971;50.028;9.258;2022-11-09T01:55:39;14.20;;;5.60;;
13799;SDS011;6971;50.028;9.258;2022-11-09T02:00:41;8.70;;;5.60;;
13799;SDS011;6971;50.028;9.258;2022-11-09T02:05:46;9.83;;;5.67;;
13799;SDS011;6971;50.028;9.258;2022-11-09T02:10:56;7.03;;;5.20;;
13799;SDS011;6971;50.028;9.258;2022-11-09T02:16:04;7.43;;;5.20;;
13799;SDS011;6971;50.028;9.258;2022-11-09T02:21:05;7.73;;;5.30;;
13799;SDS011;6971;50.028;9.258;2022-11-09T02:26:08;9.93;;;5.70;;
13799;SDS011;6971;50.028;9.258;2022-11-09T02:31:13;10.90;;;6.10;;
13799;SDS011;6971;50.028;9.258;2022-11-09T02:36:16;10.57;;;5.60;;
13799;SDS011;6971;50.028;9.258;2022-11-09T02:41:17;9.60;;;5.37;;
13799;SDS011;6971;50.028;9.258;2022-11-09T02:46:24;9.00;;;6.30;;
13799;SDS011;6971;50.028;9.258;2022-11-09T02:51:31;10.60;;;5.90;;
13799;SDS011;6971;50.028;9.258;2022-11-09T02:56:32;11.73;;;6.80;;
13799;SDS011;6971;50.028;9.258;2022-11-09T03:01:32;7.50;;;6.50;;
13799;SDS011;6971;50.028;9.258;2022-11-09T03:06:33;12.43;;;6.87;;
13799;SDS011;6971;50.028;9.258;2022-11-09T03:11:34;6.97;;;6.07;;
13799;SDS011;6971;50.028;9.258;2022-11-09T03:16:36;11.57;;;6.90;;
13799;SDS011;6971;50.028;9.258;2022-11-09T03:21:38;7.07;;;6.03;;
13799;SDS011;6971;50.028;9.258;2022-11-09T03:26:39;9.37;;;7.17;;
13799;SDS011;6971;50.028;9.258;2022-11-09T03:31:39;8.70;;;6.43;;
13799;SDS011;6971;50.028;9.258;2022-11-09T03:36:40;7.63;;;6.80;;
13799;SDS011;6971;50.028;9.258;2022-11-09T03:41:41;10.90;;;7.10;;
13799;SDS011;6971;50.028;9.258;2022-11-09T03:46:42;10.83;;;6.60;;
13799;SDS011;6971;50.028;9.258;2022-11-09T03:51:43;13.37;;;6.60;;
13799;SDS011;6971;50.028;9.258;2022-11-09T03:56:44;10.27;;;6.97;;
13799;SDS011;6971;50.028;9.258;2022-11-09T04:01:45;7.20;;;6.50;;
13799;SDS011;6971;50.028;9.258;2022-11-09T04:06:45;9.27;;;6.93;;
13799;SDS011;6971;50.028;9.258;2022-11-09T04:11:46;10.03;;;7.23;;
13799;SDS011;6971;50.028;9.258;2022-11-09T04:16:47;12.53;;;6.60;;
13799;SDS011;6971;50.028;9.258;2022-11-09T04:21:47;10.47;;;6.40;;
13799;SDS011;6971;50.028;9.258;2022-11-09T04:26:48;9.13;;;7.23;;
13799;SDS011;6971;50.028;9.258;2022-11-09T04:31:49;10.53;;;7.43;;
13799;SDS011;6971;50.028;9.258;2022-11-09T04:36:50;8.67;;;6.97;;
13799;SDS011;6971;50.028;9.258;2022-11-09T04:41:51;9.67;;;6.30;;
13799;SDS011;6971;50.028;9.258;2022-11-09T04:46:52;9.77;;;6.60;;
13799;SDS011;6971;50.028;9.258;2022-11-09T04:51:52;9.73;;;7.33;;
13799;SDS011;6971;50.028;9.258;2022-11-09T04:56:53;6.90;;;6.27;;
13799;SDS011;6971;50.028;9.258;2022-11-09T05:01:54;10.33;;;5.80;;
13799;SDS011;6971;50.028;9.258;2022-11-09T05:06:54;7.47;;;5.67;;
13799;SDS011;6971;50.028;9.258;2022-11-09T05:11:56;8.40;;;5.73;;
13799;SDS011;6971;50.028;9.258;2022-11-09T05:16:56;10.10;;;6.40;;
13799;SDS011;6971;50.028;9.258;2022-11-09T05:21:57;9.23;;;6.27;;
13799;SDS011;6971;50.028;9.258;2022-11-09T05:27:18;7.87;;;6.60;;
13799;SDS011;6971;50.028;9.258;2022-11-09T05:32:19;7.10;;;6.23;;
13799;SDS011;6971;50.028;9.258;2022-11-09T05:37:19;9.60;;;6.57;;
13799;SDS011;6971;50.028;9.258;2022-11-09T05:42:23;8.07;;;6.60;;
13799;SDS011;6971;50.028;9.258;2022-11-09T05:47:24;7.23;;;6.50;;
13799;SDS011;6971;50.028;9.258;2022-11-09T05:52:25;6.33;;;5.67;;
13799;SDS011;6971;50.028;9.258;2022-11-09T05:57:26;6.13;;;5.53;;
13799;SDS011;6971;50.028;9.258;2022-11-09T06:02:29;6.53;;;5.77;;
13799;SDS011;6971;50.028;9.258;2022-11-09T06:07:31;9.07;;;5.60;;
13799;SDS011;6971;50.028;9.258;2022-11-09T06:12:32;6.47;;;5.83;;
13799;SDS011;6971;50.028;9.258;2022-11-09T06:17:32;11.60;;;6.30;;
13799;SDS011;6971;50.028;9.258;2022-11-09T06:22:33;9.17;;;6.17;;
13799;SDS011;6971;50.028;9.258;2022-11-09T06:27:34;9.20;;;6.03;;
13799;SDS011;6971;50.028;9.258;2022-11-09T06:32:35;8.80;;;5.43;;
13799;SDS011;6971;50.028;9.258;2022-11-09T06:37:35;11.37;;;8.20;;
13799;SDS011;6971;50.028;9.258;2022-11-09T06:42:36;6.57;;;5.13;;
13799;SDS011;6971;50.028;9.258;2022-11-09T06:47:36;6.97;;;4.53;;
13799;SDS011;6971;50.028;9.258;2022-11-09T06:52:38;4.60;;;4.20;;
13799;SDS011;6971;50.028;9.258;2022-11-09T06:57:39;8.57;;;6.60;;
13799;SDS011;6971;50.028;9.258;2022-11-09T07:02:41;11.53;;;5.10;;
13799;SDS011;6971;50.028;9.258;2022-11-09T07:07:41;30.37;;;24.80;;
13799;SDS011;6971;50.028;9.258;2022-11-09T07:12:42;8.87;;;6.17;;
13799;SDS011;6971;50.028;9.258;2022-11-09T07:17:43;8.37;;;5.20;;
13799;SDS011;6971;50.028;9.258;2022-11-09T07:22:44;5.37;;;4.87;;
13799;SDS011;6971;50.028;9.258;2022-11-09T07:27:48;7.43;;;4.30;;
13799;SDS011;6971;50.028;9.258;2022-11-09T07:32:50;7.67;;;5.00;;
13799;SDS011;6971;50.028;9.258;2022-11-09T07:37:50;6.70;;;5.97;;
13799;SDS011;6971;50.028;9.258;2022-11-09T07:42:52;7.33;;;4.43;;
13799;SDS011;6971;50.028;9.258;2022-11-09T07:48:03;6.60;;;5.17;;
13799;SDS011;6971;50.028;9.258;2022-11-09T07:53:06;5.83;;;4.70;;
13799;SDS011;6971;50.028;9.258;2022-11-09T07:58:09;8.30;;;6.73;;
13799;SDS011;6971;50.028;9.258;2022-11-09T08:03:12;6.63;;;4.83;;
13799;SDS011;6971;50.028;9.258;2022-11-09T08:08:13;8.27;;;4.83;;
13799;SDS011;6971;50.028;9.258;2022-11-09T08:13:15;7.93;;;4.93;;
13799;SDS011;6971;50.028;9.258;2022-11-09T08:18:17;9.40;;;4.63;;
13799;SDS011;6971;50.028;9.258;2022-11-09T08:23:19;6.20;;;4.73;;
13799;SDS011;6971;50.028;9.258;2022-11-09T08:28:21;9.93;;;5.23;;
13799;SDS011;6971;50.028;9.258;2022-11-09T08:33:22;11.93;;;4.80;;
13799;SDS011;6971;50.028;9.258;2022-11-09T08:38:23;9.17;;;4.43;;
13799;SDS011;6971;50.028;9.258;2022-11-09T08:43:24;8.27;;;5.23;;
13799;SDS011;6971;50.028;9.258;2022-11-09T08:48:25;6.93;;;4.50;;
13799;SDS011;6971;50.028;9.258;2022-11-09T08:53:26;9.80;;;5.30;;
13799;SDS011;6971;50.028;9.258;2022-11-09T08:58:29;14.10;;;12.60;;
13799;SDS011;6971;50.028;9.258;2022-11-09T09:03:29;3.53;;;3.23;;
13799;SDS011;6971;50.028;9.258;2022-11-09T09:08:30;4.97;;;3.00;;
13799;SDS011;6971;50.028;9.258;2022-11-09T09:13:32;4.20;;;3.37;;
13799;SDS011;6971;50.028;9.258;2022-11-09T09:18:33;6.83;;;3.77;;
13799;SDS011;6971;50.028;9.258;2022-11-09T09:23:34;5.27;;;4.43;;
13799;SDS011;6971;50.028;9.258;2022-11-09T09:28:34;6.57;;;3.50;;
13799;SDS011;6971;50.028;9.258;2022-11-09T09:33:35;4.40;;;4.00;;
13799;SDS011;6971;50.028;9.258;2022-11-09T09:38:38;5.13;;;4.57;;
13799;SDS011;6971;50.028;9.258;2022-11-09T09:43:39;3.47;;;3.17;;
13799;SDS011;6971;50.028;9.258;2022-11-09T09:48:47;2.23;;;1.80;;
13799;SDS011;6971;50.028;9.258;2022-11-09T09:53:54;1.87;;;1.67;;
13799;SDS011;6971;50.028;9.258;2022-11-09T09:59:08;2.30;;;1.60;;
13799;SDS011;6971;50.028;9.258;2022-11-09T10:04:18;8.03;;;4.50;;
13799;SDS011;6971;50.028;9.258;2022-11-09T10:29:56;3.10;;;2.20;;
13799;SDS011;6971;50.028;9.258;2022-11-09T10:35:06;1.83;;;1.73;;
13799;SDS011;6971;50.028;9.258;2022-11-09T10:45:58;2.13;;;1.60;;
13799;SDS011;6971;50.028;9.258;2022-11-09T10:51:05;1.90;;;1.40;;
13799;SDS011;6971;50.028;9.258;2022-11-09T10:56:30;2.03;;;1.50;;
13799;SDS011;6971;50.028;9.258;2022-11-09T11:01:43;4.83;;;2.80;;
13799;SDS011;6971;50.028;9.258;2022-11-09T11:06:44;2.70;;;2.00;;
13799;SDS011;6971;50.028;9.258;2022-11-09T11:11:45;2.50;;;1.90;;
13799;SDS011;6971;50.028;9.258;2022-11-09T11:16:45;4.83;;;2.70;;
13799;SDS011;6971;50.028;9.258;2022-11-09T11:21:58;2.27;;;1.90;;
13799;SDS011;6971;50.028;9.258;2022-11-09T11:32:29;2.87;;;1.07;;
13799;SDS011;6971;50.028;9.258;2022-11-09T11:37:42;2.33;;;1.50;;
13799;SDS011;6971;50.028;9.258;2022-11-09T11:42:55;4.50;;;1.40;;
13799;SDS011;6971;50.028;9.258;2022-11-09T11:48:24;6.30;;;1.90;;
13799;SDS011;6971;50.028;9.258;2022-11-09T12:09:17;4.17;;;1.90;;
13799;SDS011;6971;50.028;9.258;2022-11-09T12:20:14;5.13;;;1.40;;
13799;SDS011;6971;50.028;9.258;2022-11-09T12:36:16;2.73;;;1.60;;
13799;SDS011;6971;50.028;9.258;2022-11-09T12:41:23;2.97;;;1.70;;
13799;SDS011;6971;50.028;9.258;2022-11-09T12:46:37;3.60;;;1.63;;
13799;SDS011;6971;50.028;9.258;2022-11-09T12:51:42;3.67;;;1.20;;
13799;SDS011;6971;50.028;9.258;2022-11-09T12:56:59;3.47;;;1.70;;
13799;SDS011;6971;50.028;9.258;2022-11-09T13:02:03;3.23;;;1.50;;
13799;SDS011;6971;50.028;9.258;2022-11-09T13:12:23;2.93;;;1.43;;
13799;SDS011;6971;50.028;9.258;2022-11-09T13:18:21;3.03;;;1.80;;
13799;SDS011;6971;50.028;9.258;2022-11-09T13:22:59;5.23;;;1.30;;
13799;SDS011;6971;50.028;9.258;2022-11-09T13:28:01;2.67;;;1.67;;
13799;SDS011;6971;50.028;9.258;2022-11-09T13:43:39;3.57;;;1.50;;
13799;SDS011;6971;50.028;9.258;2022-11-09T14:04:24;5.37;;;2.27;;
13799;SDS011;6971;50.028;9.258;2022-11-09T14:09:27;7.60;;;3.53;;
13799;SDS011;6971;50.028;9.258;2022-11-09T14:20:39;5.13;;;1.77;;
13799;SDS011;6971;50.028;9.258;2022-11-09T14:25:41;3.73;;;1.57;;
13799;SDS011;6971;50.028;9.258;2022-11-09T14:30:43;3.23;;;1.83;;
13799;SDS011;6971;50.028;9.258;2022-11-09T14:35:44;3.90;;;2.50;;
13799;SDS011;6971;50.028;9.258;2022-11-09T14:40:46;3.47;;;2.50;;
13799;SDS011;6971;50.028;9.258;2022-11-09T14:45:48;7.77;;;2.40;;
13799;SDS011;6971;50.028;9.258;2022-11-09T14:50:53;4.27;;;1.80;;
13799;SDS011;6971;50.028;9.258;2022-11-09T14:55:57;3.77;;;1.70;;
13799;SDS011;6971;50.028;9.258;2022-11-09T15:06:23;5.00;;;2.87;;
13799;SDS011;6971;50.028;9.258;2022-11-09T15:11:30;5.70;;;2.70;;
13799;SDS011;6971;50.028;9.258;2022-11-09T15:16:32;6.00;;;2.30;;
13799;SDS011;6971;50.028;9.258;2022-11-09T15:21:34;6.53;;;1.90;;
13799;SDS011;6971;50.028;9.258;2022-11-09T15:26:51;6.90;;;2.10;;
13799;SDS011;6971;50.028;9.258;2022-11-09T15:31:56;4.23;;;2.23;;
13799;SDS011;6971;50.028;9.258;2022-11-09T15:36:58;5.53;;;2.20;;
13799;SDS011;6971;50.028;9.258;2022-11-09T15:41:59;6.43;;;2.10;;
13799;SDS011;6971;50.028;9.258;2022-11-09T15:47:00;5.10;;;2.23;;
13799;SDS011;6971;50.028;9.258;2022-11-09T15:52:00;4.67;;;1.90;;
13799;SDS011;6971;50.028;9.258;2022-11-09T15:57:01;3.83;;;2.03;;
13799;SDS011;6971;50.028;9.258;2022-11-09T16:02:02;4.53;;;2.03;;
13799;SDS011;6971;50.028;9.258;2022-11-09T16:07:04;3.53;;;1.87;;
13799;SDS011;6971;50.028;9.258;2022-11-09T16:12:05;4.07;;;1.90;;
13799;SDS011;6971;50.028;9.258;2022-11-09T16:17:06;5.87;;;3.23;;
13799;SDS011;6971;50.028;9.258;2022-11-09T16:22:06;5.00;;;3.13;;
13799;SDS011;6971;50.028;9.258;2022-11-09T16:27:07;8.17;;;2.83;;
13799;SDS011;6971;50.028;9.258;2022-11-09T16:32:08;11.00;;;3.07;;
13799;SDS011;6971;50.028;9.258;2022-11-09T16:37:10;6.97;;;2.57;;
13799;SDS011;6971;50.028;9.258;2022-11-09T16:42:11;4.80;;;2.77;;
13799;SDS011;6971;50.028;9.258;2022-11-09T16:47:14;4.60;;;3.20;;
13799;SDS011;6971;50.028;9.258;2022-11-09T16:52:20;6.43;;;3.43;;
13799;SDS011;6971;50.028;9.258;2022-11-09T16:57:20;13.13;;;3.83;;
13799;SDS011;6971;50.028;9.258;2022-11-09T17:02:22;6.73;;;3.63;;
13799;SDS011;6971;50.028;9.258;2022-11-09T17:07:24;9.33;;;4.20;;
13799;SDS011;6971;50.028;9.258;2022-11-09T17:12:25;5.93;;;5.10;;
13799;SDS011;6971;50.028;9.258;2022-11-09T17:17:26;8.30;;;5.60;;
13799;SDS011;6971;50.028;9.258;2022-11-09T17:22:26;6.10;;;5.13;;
13799;SDS011;6971;50.028;9.258;2022-11-09T17:27:27;15.63;;;9.10;;
13799;SDS011;6971;50.028;9.258;2022-11-09T17:32:28;15.20;;;12.50;;
13799;SDS011;6971;50.028;9.258;2022-11-09T17:37:29;19.43;;;12.13;;
13799;SDS011;6971;50.028;9.258;2022-11-09T17:42:29;9.90;;;8.53;;
13799;SDS011;6971;50.028;9.258;2022-11-09T17:47:33;12.47;;;10.97;;
13799;SDS011;6971;50.028;9.258;2022-11-09T17:52:34;12.77;;;9.07;;
13799;SDS011;6971;50.028;9.258;2022-11-09T17:57:35;9.73;;;6.00;;
13799;SDS011;6971;50.028;9.258;2022-11-09T18:02:36;13.73;;;5.40;;
13799;SDS011;6971;50.028;9.258;2022-11-09T18:07:36;7.23;;;6.10;;
13799;SDS011;6971;50.028;9.258;2022-11-09T18:12:37;10.70;;;6.63;;
13799;SDS011;6971;50.028;9.258;2022-11-09T18:17:38;11.20;;;7.50;;
13799;SDS011;6971;50.028;9.258;2022-11-09T18:22:39;14.03;;;9.93;;
13799;SDS011;6971;50.028;9.258;2022-11-09T18:27:39;11.23;;;7.93;;
13799;SDS011;6971;50.028;9.258;2022-11-09T18:32:40;10.63;;;8.47;;
13799;SDS011;6971;50.028;9.258;2022-11-09T18:37:41;55.93;;;26.20;;
13799;SDS011;6971;50.028;9.258;2022-11-09T18:42:44;93.47;;;47.30;;
13799;SDS011;6971;50.028;9.258;2022-11-09T18:47:47;21.97;;;14.43;;
13799;SDS011;6971;50.028;9.258;2022-11-09T18:52:48;13.93;;;9.33;;
13799;SDS011;6971;50.028;9.258;2022-11-09T18:57:49;15.37;;;12.93;;
13799;SDS011;6971;50.028;9.258;2022-11-09T19:02:50;19.27;;;13.70;;
13799;SDS011;6971;50.028;9.258;2022-11-09T19:07:51;23.33;;;16.20;;
13799;SDS011;6971;50.028;9.258;2022-11-09T19:12:51;20.23;;;14.80;;
13799;SDS011;6971;50.028;9.258;2022-11-09T19:17:52;21.33;;;11.53;;
13799;SDS011;6971;50.028;9.258;2022-11-09T19:22:53;23.23;;;14.13;;
13799;SDS011;6971;50.028;9.258;2022-11-09T19:27:54;26.80;;;17.87;;
13799;SDS011;6971;50.028;9.258;2022-11-09T19:32:55;33.03;;;22.40;;
13799;SDS011;6971;50.028;9.258;2022-11-09T19:37:55;18.43;;;10.97;;
13799;SDS011;6971;50.028;9.258;2022-11-09T19:42:56;14.60;;;10.87;;
13799;SDS011;6971;50.028;9.258;2022-11-09T19:47:56;13.73;;;11.43;;
13799;SDS011;6971;50.028;9.258;2022-11-09T19:52:58;14.23;;;12.20;;
13799;SDS011;6971;50.028;9.258;2022-11-09T19:57:58;14.43;;;12.17;;
13799;SDS011;6971;50.028;9.258;2022-11-09T20:02:59;18.00;;;11.93;;
13799;SDS011;6971;50.028;9.258;2022-11-09T20:08:03;82.77;;;42.37;;
13799;SDS011;6971;50.028;9.258;2022-11-09T20:13:04;167.07;;;86.27;;
13799;SDS011;6971;50.028;9.258;2022-11-09T20:18:05;68.47;;;39.93;;
13799;SDS011;6971;50.028;9.258;2022-11-09T20:23:05;152.83;;;78.33;;
13799;SDS011;6971;50.028;9.258;2022-11-09T20:28:06;69.60;;;43.40;;
13799;SDS011;6971;50.028;9.258;2022-11-09T20:33:07;131.30;;;63.37;;
13799;SDS011;6971;50.028;9.258;2022-11-09T20:38:09;81.53;;;44.67;;
13799;SDS011;6971;50.028;9.258;2022-11-09T20:43:09;111.63;;;59.27;;
13799;SDS011;6971;50.028;9.258;2022-11-09T20:48:10;81.57;;;46.00;;
13799;SDS011;6971;50.028;9.258;2022-11-09T20:53:11;63.10;;;43.80;;
13799;SDS011;6971;50.028;9.258;2022-11-09T20:58:14;25.63;;;18.30;;
13799;SDS011;6971;50.028;9.258;2022-11-09T21:03:15;16.03;;;14.33;;
13799;SDS011;6971;50.028;9.258;2022-11-09T21:08:15;16.90;;;14.20;;
13799;SDS011;6971;50.028;9.258;2022-11-09T21:13:16;20.40;;;11.83;;
13799;SDS011;6971;50.028;9.258;2022-11-09T21:18:17;16.80;;;11.13;;
13799;SDS011;6971;50.028;9.258;2022-11-09T21:23:18;15.53;;;10.30;;
13799;SDS011;6971;50.028;9.258;2022-11-09T21:28:19;14.87;;;11.17;;
13799;SDS011;6971;50.028;9.258;2022-11-09T21:33:39;15.33;;;10.10;;
13799;SDS011;6971;50.028;9.258;2022-11-09T21:38:41;15.27;;;11.80;;
13799;SDS011;6971;50.028;9.258;2022-11-09T21:43:41;20.43;;;10.77;;
13799;SDS011;6971;50.028;9.258;2022-11-09T21:48:42;14.27;;;10.93;;
13799;SDS011;6971;50.028;9.258;2022-11-09T21:53:43;13.00;;;10.13;;
13799;SDS011;6971;50.028;9.258;2022-11-09T21:58:47;16.57;;;10.47;;
13799;SDS011;6971;50.028;9.258;2022-11-09T22:03:48;14.63;;;10.63;;
13799;SDS011;6971;50.028;9.258;2022-11-09T22:08:49;15.40;;;9.70;;
13799;SDS011;6971;50.028;9.258;2022-11-09T22:13:50;13.40;;;10.50;;
13799;SDS011;6971;50.028;9.258;2022-11-09T22:19:12;16.10;;;10.90;;
13799;SDS011;6971;50.028;9.258;2022-11-09T22:24:31;14.10;;;10.40;;
13799;SDS011;6971;50.028;9.258;2022-11-09T22:29:32;17.07;;;9.47;;
13799;SDS011;6971;50.028;9.258;2022-11-09T22:34:33;14.07;;;9.90;;
13799;SDS011;6971;50.028;9.258;2022-11-09T22:39:34;15.90;;;9.27;;
13799;SDS011;6971;50.028;9.258;2022-11-09T22:44:34;13.63;;;8.53;;
13799;SDS011;6971;50.028;9.258;2022-11-09T22:49:35;15.40;;;8.33;;
13799;SDS011;6971;50.028;9.258;2022-11-09T22:54:36;11.93;;;8.43;;
13799;SDS011;6971;50.028;9.258;2022-11-09T22:59:37;18.70;;;7.90;;
13799;SDS011;6971;50.028;9.258;2022-11-09T23:04:38;11.97;;;7.70;;
13799;SDS011;6971;50.028;9.258;2022-11-09T23:09:38;13.70;;;8.60;;
13799;SDS011;6971;50.028;9.258;2022-11-09T23:14:39;12.33;;;8.53;;
13799;SDS011;6971;50.028;9.258;2022-11-09T23:19:58;16.00;;;9.00;;
13799;SDS011;6971;50.028;9.258;2022-11-09T23:25:00;9.87;;;6.73;;
13799;SDS011;6971;50.028;9.258;2022-11-09T23:30:19;11.00;;;7.50;;
13799;SDS011;6971;50.028;9.258;2022-11-09T23:35:21;16.37;;;7.80;;
13799;SDS011;6971;50.028;9.258;2022-11-09T23:40:21;13.43;;;6.93;;
13799;SDS011;6971;50.028;9.258;2022-11-09T23:45:42;16.47;;;7.77;;
13799;SDS011;6971;50.028;9.258;2022-11-09T23:50:43;11.77;;;8.00;;
13799;SDS011;6971;50.028;9.258;2022-11-09T23:55:47;11.10;;;7.97;;
